createdAt,value
2023-01-08T00:00:29.732Z,71.90
2023-01-08T00:03:00.220Z,86.72
2023-01-08T00:07:54.896Z,86.38
2023-01-08T00:10:23.486Z,98.60
2023-01-08T00:12:50.660Z,94.63
2023-01-08T00:15:19.207Z,103.93
2023-01-08T00:17:49.026Z,106.05
2023-01-08T00:20:25.200Z,106.55
2023-01-08T00:22:53.007Z,90.20
2023-01-08T00:25:20.875Z,100.45
2023-01-08T00:27:53.068Z,100.88
2023-01-08T00:30:23.235Z,90.25
2023-01-08T00:32:55.816Z,96.50
2023-01-08T00:35:34.893Z,97.10
2023-01-08T00:38:07.932Z,88.45
2023-01-08T00:40:38.622Z,99.00
2023-01-08T00:43:18.352Z,94.60
2023-01-08T00:45:51.986Z,105.05
2023-01-08T00:48:27.794Z,110.75
2023-01-08T00:50:58.475Z,107.80
2023-01-08T00:53:26.953Z,110.50
2023-01-08T00:56:03.864Z,117.55
2023-01-08T00:58:31.177Z,118.95
2023-01-08T01:00:58.534Z,126.05
2023-01-08T01:03:26.458Z,157.75
2023-01-08T01:06:07.296Z,128.90
2023-01-08T01:08:37.854Z,107.60
2023-01-08T01:13:36.419Z,98.97
2023-01-08T01:16:11.038Z,109.95
2023-01-08T01:18:45.331Z,109.53
2023-01-08T01:21:17.609Z,120.20
2023-01-08T01:23:47.843Z,120.10
2023-01-08T01:26:25.941Z,118.75
2023-01-08T01:28:58.688Z,117.35
2023-01-08T01:31:29.561Z,116.28
2023-01-08T01:33:56.964Z,114.00
2023-01-08T01:36:25.760Z,124.65
2023-01-08T01:38:55.507Z,111.35
2023-01-08T01:41:29.283Z,112.30
2023-01-08T01:43:58.677Z,122.57
2023-01-08T01:46:43.971Z,105.63
2023-01-08T01:49:15.768Z,105.60
2023-01-08T01:51:48.419Z,101.60
2023-01-08T01:54:16.764Z,109.13
2023-01-08T01:56:45.616Z,111.95
2023-01-08T01:59:13.683Z,101.57
2023-01-08T02:01:42.822Z,111.72
2023-01-08T02:04:13.156Z,109.70
2023-01-08T02:06:58.332Z,107.95
2023-01-08T02:09:48.794Z,99.47
2023-01-08T02:12:39.421Z,105.45
2023-01-08T02:18:05.447Z,104.13
2023-01-08T02:20:46.767Z,97.68
2023-01-08T02:24:02.057Z,101.65
2023-01-08T02:26:35.417Z,105.43
2023-01-08T02:29:16.259Z,99.75
2023-01-08T02:31:45.417Z,95.85
2023-01-08T02:34:13.849Z,98.00
2023-01-08T02:36:45.157Z,99.45
2023-01-08T02:39:29.580Z,98.57
2023-01-08T02:41:56.866Z,95.32
2023-01-08T02:44:53.127Z,93.78
2023-01-08T02:47:33.884Z,95.38
2023-01-08T02:50:15.546Z,106.70
2023-01-08T02:52:56.713Z,96.30
2023-01-08T02:55:26.503Z,99.20
2023-01-08T02:57:54.014Z,98.55
2023-01-08T03:00:21.840Z,101.53
2023-01-08T03:02:52.560Z,100.70
2023-01-08T03:05:25.459Z,95.35
2023-01-08T03:07:57.037Z,97.05
2023-01-08T03:10:30.433Z,103.70
2023-01-08T03:13:06.065Z,91.13
2023-01-08T03:15:41.206Z,86.07
2023-01-08T03:18:13.500Z,82.50
2023-01-08T03:20:41.345Z,76.93
2023-01-08T03:23:11.302Z,77.10
2023-01-08T03:25:42.260Z,84.20
2023-01-08T03:28:19.948Z,72.60
2023-01-08T03:30:49.364Z,65.55
2023-01-08T03:33:18.112Z,58.58
2023-01-08T03:35:49.909Z,65.22
2023-01-08T03:38:30.010Z,62.80
2023-01-08T03:41:14.305Z,65.38
2023-01-08T03:43:41.570Z,59.13
2023-01-08T03:46:16.675Z,55.08
2023-01-08T03:48:45.032Z,62.20
2023-01-08T03:51:12.310Z,63.25
2023-01-08T03:53:39.534Z,56.67
2023-01-08T03:56:07.043Z,62.08
2023-01-08T03:58:34.426Z,56.78
2023-01-08T04:01:01.786Z,53.65
2023-01-08T04:03:28.980Z,54.22
2023-01-08T04:05:59.108Z,59.35
2023-01-08T04:08:26.368Z,60.42
2023-01-08T04:10:53.567Z,58.13
2023-01-08T04:13:20.734Z,58.38
2023-01-08T04:15:49.839Z,58.17
2023-01-08T04:18:20.102Z,63.00
2023-01-08T04:20:48.384Z,64.45
2023-01-08T04:23:16.667Z,65.40
2023-01-08T04:25:43.964Z,66.82
2023-01-08T04:28:11.354Z,63.67
2023-01-08T04:30:38.597Z,64.15
2023-01-08T04:33:05.981Z,67.97
2023-01-08T04:35:33.334Z,65.40
2023-01-08T04:38:00.593Z,69.47
2023-01-08T04:40:27.834Z,60.95
2023-01-08T04:42:55.136Z,70.35
2023-01-08T04:45:22.657Z,68.38
2023-01-08T04:47:55.487Z,67.45
2023-01-08T04:50:22.858Z,62.75
2023-01-08T04:52:50.064Z,62.35
2023-01-08T04:55:17.424Z,60.67
2023-01-08T04:57:44.992Z,67.75
2023-01-08T05:00:12.905Z,59.70
2023-01-08T05:02:40.239Z,58.13
2023-01-08T05:05:08.015Z,55.95
2023-01-08T05:07:35.255Z,58.72
2023-01-08T05:10:02.339Z,58.00
2023-01-08T05:12:29.501Z,60.60
2023-01-08T05:14:56.807Z,53.78
2023-01-08T05:17:24.087Z,56.28
2023-01-08T05:19:51.357Z,53.97
2023-01-08T05:22:18.701Z,55.38
2023-01-08T05:24:45.807Z,54.63
2023-01-08T05:27:13.090Z,53.50
2023-01-08T05:29:40.228Z,54.92
2023-01-08T05:32:16.592Z,56.95
2023-01-08T05:34:44.449Z,53.97
2023-01-08T05:37:12.297Z,51.50
2023-01-08T05:39:39.563Z,45.20
2023-01-08T05:42:06.727Z,48.40
2023-01-08T05:44:35.953Z,52.88
2023-01-08T05:47:03.223Z,50.35
2023-01-08T05:49:30.439Z,48.83
2023-01-08T05:51:57.959Z,48.20
2023-01-08T05:54:25.253Z,42.97
2023-01-08T05:56:52.566Z,45.20
2023-01-08T05:59:19.863Z,49.72
2023-01-08T06:01:47.268Z,44.72
2023-01-08T06:04:14.609Z,44.58
2023-01-08T06:06:41.938Z,46.22
2023-01-08T06:09:09.518Z,54.53
2023-01-08T06:11:36.698Z,54.17
2023-01-08T06:14:03.962Z,48.13
2023-01-08T06:16:31.250Z,45.70
2023-01-08T06:18:58.478Z,43.45
2023-01-08T06:21:25.813Z,49.47
2023-01-08T06:23:53.066Z,50.58
2023-01-08T06:26:20.364Z,49.80
2023-01-08T06:28:47.700Z,49.78
2023-01-08T06:31:15.005Z,50.53
2023-01-08T06:33:42.204Z,47.42
2023-01-08T06:36:09.476Z,54.70
2023-01-08T06:38:37.701Z,54.05
2023-01-08T06:41:10.344Z,45.13
2023-01-08T06:43:39.009Z,49.55
2023-01-08T06:46:07.304Z,50.88
2023-01-08T06:48:35.054Z,46.05
2023-01-08T06:51:03.545Z,50.95
2023-01-08T06:53:31.078Z,49.25
2023-01-08T06:55:58.941Z,47.03
2023-01-08T06:58:27.870Z,51.28
2023-01-08T07:00:54.987Z,50.60
2023-01-08T07:03:22.229Z,56.35
2023-01-08T07:05:50.921Z,59.38
2023-01-08T07:08:18.868Z,52.55
2023-01-08T07:10:46.110Z,47.20
2023-01-08T07:13:15.856Z,52.92
2023-01-08T07:15:43.402Z,50.75
2023-01-08T07:18:12.158Z,53.95
2023-01-08T07:20:39.612Z,48.03
2023-01-08T07:23:10.719Z,52.45
2023-01-08T07:25:37.919Z,48.00
2023-01-08T07:28:05.354Z,50.28
2023-01-08T07:30:32.648Z,50.42
2023-01-08T07:33:00.795Z,44.55
2023-01-08T07:35:28.360Z,41.88
2023-01-08T07:37:55.819Z,41.90
2023-01-08T07:40:23.701Z,42.45
2023-01-08T07:43:04.262Z,41.35
2023-01-08T07:47:59.222Z,34.75
2023-01-08T07:50:27.664Z,37.72
2023-01-08T07:53:00.973Z,38.92
2023-01-08T07:55:29.766Z,38.10
2023-01-08T07:57:56.991Z,38.88
2023-01-08T08:00:24.184Z,44.97
2023-01-08T08:02:51.468Z,43.85
2023-01-08T08:05:18.716Z,52.08
2023-01-08T08:07:45.876Z,51.22
2023-01-08T08:10:13.102Z,49.22
2023-01-08T08:12:40.186Z,56.70
2023-01-08T08:15:08.496Z,54.45
2023-01-08T08:17:35.610Z,62.00
2023-01-08T08:20:02.777Z,58.55
2023-01-08T08:22:30.568Z,67.72
2023-01-08T08:24:57.845Z,61.83
2023-01-08T08:27:25.069Z,62.63
2023-01-08T08:29:52.256Z,65.10
2023-01-08T08:32:19.433Z,58.20
2023-01-08T08:34:46.540Z,56.50
2023-01-08T08:37:13.872Z,58.50
2023-01-08T08:39:41.102Z,62.78
2023-01-08T08:42:08.201Z,52.40
2023-01-08T08:44:35.370Z,58.15
2023-01-08T08:47:15.976Z,49.95
2023-01-08T08:52:10.140Z,50.33
2023-01-08T08:54:41.574Z,48.55
2023-01-08T08:57:12.979Z,48.22
2023-01-08T08:59:40.129Z,49.85
2023-01-08T09:02:07.956Z,50.53
2023-01-08T09:04:35.341Z,55.15
2023-01-08T09:07:02.751Z,52.92
2023-01-08T09:09:29.963Z,50.83
2023-01-08T09:11:57.341Z,53.40
2023-01-08T09:14:27.031Z,57.85
2023-01-08T09:16:54.225Z,53.08
2023-01-08T09:19:22.898Z,50.33
2023-01-08T09:21:51.002Z,54.38
2023-01-08T09:24:18.244Z,50.28
2023-01-08T09:26:45.420Z,50.72
2023-01-08T09:29:12.617Z,53.72
2023-01-08T09:31:39.709Z,53.35
2023-01-08T09:34:06.876Z,50.40
2023-01-08T09:36:39.241Z,50.10
2023-01-08T09:39:06.878Z,48.95
2023-01-08T09:41:45.295Z,50.25
2023-01-08T09:44:22.748Z,45.20
2023-01-08T09:46:56.122Z,51.10
2023-01-08T09:49:35.417Z,45.13
2023-01-08T09:52:04.875Z,48.25
2023-01-08T09:54:32.705Z,42.67
2023-01-08T09:57:00.617Z,32.70
2023-01-08T09:59:27.853Z,36.28
2023-01-08T10:01:55.190Z,35.75
2023-01-08T10:04:29.988Z,38.72
2023-01-08T10:07:28.001Z,35.00
2023-01-08T10:09:56.240Z,36.15
2023-01-08T10:12:29.713Z,40.20
2023-01-08T10:15:25.650Z,35.78
2023-01-08T10:18:06.725Z,40.60
2023-01-08T10:20:39.514Z,35.35
2023-01-08T10:23:25.876Z,35.90
2023-01-08T10:25:57.347Z,29.63
2023-01-08T10:28:27.111Z,35.28
2023-01-08T10:31:04.403Z,36.10
2023-01-08T10:33:39.023Z,33.22
2023-01-08T10:36:13.220Z,56.70
2023-01-08T10:39:01.435Z,55.80
2023-01-08T10:41:32.330Z,54.35
2023-01-08T10:44:30.898Z,35.92
2023-01-08T10:47:01.307Z,34.58
2023-01-08T10:52:06.399Z,29.48
2023-01-08T10:54:50.230Z,30.25
2023-01-08T10:57:25.675Z,28.25
2023-01-08T11:00:13.230Z,28.73
2023-01-08T11:02:41.002Z,30.83
2023-01-08T11:05:11.760Z,30.45
2023-01-08T11:07:44.305Z,32.33
2023-01-08T11:10:24.405Z,32.15
2023-01-08T11:13:04.282Z,34.28
2023-01-08T11:15:32.997Z,34.43
2023-01-08T11:18:19.831Z,33.20
2023-01-08T11:20:48.009Z,30.73
2023-01-08T11:23:22.601Z,34.33
2023-01-08T11:26:21.630Z,32.75
2023-01-08T11:28:58.825Z,34.22
2023-01-08T11:32:09.173Z,32.10
2023-01-08T11:34:45.328Z,30.85
2023-01-08T11:37:23.879Z,28.77
2023-01-08T11:39:55.224Z,35.65
2023-01-08T11:42:30.494Z,32.20
2023-01-08T11:45:36.740Z,31.67
2023-01-08T11:48:58.258Z,34.80
2023-01-08T11:52:14.887Z,53.25
2023-01-08T11:54:53.138Z,53.92
2023-01-08T11:57:42.790Z,34.65
2023-01-08T12:00:38.941Z,33.25
2023-01-08T12:03:40.773Z,29.23
2023-01-08T12:06:28.275Z,28.48
2023-01-08T12:09:18.369Z,30.40
2023-01-08T12:12:00.508Z,27.30
2023-01-08T12:15:20.712Z,31.38
2023-01-08T12:18:05.918Z,28.33
2023-01-08T12:21:06.617Z,31.67
2023-01-08T12:23:44.549Z,28.83
2023-01-08T12:26:49.728Z,28.80
2023-01-08T12:29:34.336Z,25.10
2023-01-08T12:32:20.123Z,29.20
2023-01-08T12:35:12.368Z,32.13
2023-01-08T12:37:45.717Z,25.55
2023-01-08T12:43:56.676Z,21.63
2023-01-08T12:46:43.095Z,20.65
2023-01-08T12:49:22.549Z,22.08
2023-01-08T12:52:22.594Z,20.70
2023-01-08T12:55:18.052Z,21.88
2023-01-08T12:57:56.670Z,22.88
2023-01-08T13:00:40.084Z,23.48
2023-01-08T13:03:15.353Z,22.48
2023-01-08T13:05:45.672Z,54.05
2023-01-08T13:08:36.997Z,68.75
2023-01-08T13:11:05.760Z,102.75
2023-01-08T13:13:39.804Z,37.80
2023-01-08T13:16:20.442Z,28.90
2023-01-08T13:19:01.876Z,27.13
2023-01-08T13:21:43.369Z,24.60
2023-01-08T13:24:29.909Z,26.45
2023-01-08T13:27:10.183Z,24.65
2023-01-08T13:29:48.779Z,22.52
2023-01-08T13:32:49.879Z,27.98
2023-01-08T13:35:17.220Z,23.08
2023-01-08T13:37:47.755Z,20.90
2023-01-08T13:40:48.132Z,22.13
2023-01-08T13:43:21.536Z,20.58
2023-01-08T13:45:57.046Z,21.25
2023-01-08T13:48:28.076Z,18.65
2023-01-08T13:50:55.898Z,20.48
2023-01-08T13:53:24.465Z,20.15
2023-01-08T13:56:15.938Z,23.17
2023-01-08T13:58:52.786Z,29.02
2023-01-08T14:01:22.063Z,29.48
2023-01-08T14:03:50.452Z,25.52
2023-01-08T14:09:23.951Z,21.02
2023-01-08T14:11:57.876Z,25.17
2023-01-08T14:14:31.260Z,23.02
2023-01-08T14:17:00.031Z,23.70
2023-01-08T14:19:27.770Z,24.60
2023-01-08T14:22:01.810Z,23.98
2023-01-08T14:24:32.496Z,24.27
2023-01-08T14:27:36.246Z,24.75
2023-01-08T14:30:21.860Z,25.80
2023-01-08T14:33:00.127Z,37.65
2023-01-08T14:39:48.654Z,45.80
2023-01-08T14:46:29.906Z,49.13
2023-01-08T14:48:58.358Z,51.70
2023-01-08T14:51:31.296Z,54.40
2023-01-08T14:54:11.571Z,57.97
2023-01-08T14:56:52.767Z,45.65
2023-01-08T14:59:26.907Z,52.83
2023-01-08T15:02:27.935Z,62.90
2023-01-08T15:05:40.911Z,59.00
2023-01-08T15:08:35.248Z,49.80
2023-01-08T15:11:23.918Z,51.65
2023-01-08T15:13:57.511Z,49.50
2023-01-08T15:16:42.654Z,46.35
2023-01-08T15:19:19.391Z,52.92
2023-01-08T15:21:56.192Z,46.45
2023-01-08T15:24:44.712Z,60.50
2023-01-08T15:30:48.198Z,69.32
2023-01-08T15:33:24.902Z,62.85
2023-01-08T15:35:52.342Z,59.55
2023-01-08T15:38:23.962Z,62.38
2023-01-08T15:40:56.288Z,68.70
2023-01-08T15:43:40.282Z,59.88
2023-01-08T15:46:19.186Z,68.45
2023-01-08T15:49:28.767Z,64.50
2023-01-08T15:55:25.853Z,71.75
2023-01-08T15:58:28.996Z,62.53
2023-01-08T16:04:49.804Z,71.82
2023-01-08T16:07:23.423Z,103.65
2023-01-08T16:09:52.755Z,109.45
2023-01-08T16:12:24.960Z,95.63
2023-01-08T16:15:00.227Z,73.20
2023-01-08T16:17:40.903Z,73.13
2023-01-08T16:20:12.090Z,79.72
2023-01-08T16:22:39.861Z,78.93
2023-01-08T16:25:12.510Z,91.25
2023-01-08T16:27:43.161Z,88.93
2023-01-08T16:30:17.922Z,81.25
2023-01-08T16:32:47.287Z,88.60
2023-01-08T16:35:16.459Z,86.82
2023-01-08T16:37:46.280Z,86.45
2023-01-08T16:40:20.504Z,87.47
2023-01-08T16:42:50.988Z,90.15
2023-01-08T16:45:18.408Z,85.38
2023-01-08T16:47:54.477Z,94.20
2023-01-08T16:50:27.967Z,97.75
2023-01-08T16:52:58.275Z,104.78
2023-01-08T16:55:25.651Z,121.38
2023-01-08T16:57:55.604Z,106.43
2023-01-08T17:05:23.350Z,91.25
2023-01-08T17:07:56.263Z,82.53
2023-01-08T17:10:54.592Z,87.03
2023-01-08T17:13:25.317Z,86.10
2023-01-08T17:16:07.580Z,83.75
2023-01-08T17:18:45.616Z,81.22
2023-01-08T17:25:00.143Z,78.55
2023-01-08T17:27:42.320Z,89.05
2023-01-08T17:30:18.004Z,78.75
2023-01-08T17:32:56.910Z,80.75
2023-01-08T17:35:53.385Z,83.18
2023-01-08T17:38:32.615Z,78.57
2023-01-08T17:41:01.913Z,87.35
2023-01-08T17:43:55.258Z,85.32
2023-01-08T17:46:25.760Z,114.85
2023-01-08T17:48:52.964Z,119.25
2023-01-08T17:51:20.262Z,134.73
2023-01-08T17:53:47.574Z,139.75
2023-01-08T17:56:14.732Z,150.73
2023-01-08T17:58:45.893Z,147.88
2023-01-08T18:01:17.235Z,136.35
2023-01-08T18:03:44.575Z,141.13
2023-01-08T18:06:13.735Z,154.93
2023-01-08T18:08:42.173Z,150.95
2023-01-08T18:11:23.016Z,140.73
2023-01-08T18:13:55.702Z,150.88
2023-01-08T18:16:24.263Z,145.98
2023-01-08T18:18:52.431Z,149.43
2023-01-08T18:21:20.047Z,130.68
2023-01-08T18:23:51.303Z,137.77
2023-01-08T18:26:21.069Z,138.10
2023-01-08T18:28:53.732Z,131.18
2023-01-08T18:31:21.668Z,158.67
2023-01-08T18:33:52.959Z,154.93
2023-01-08T18:36:21.055Z,219.23
2023-01-08T18:38:49.867Z,164.68
2023-01-08T18:41:37.675Z,151.63
2023-01-08T18:44:06.869Z,153.50
2023-01-08T18:46:37.875Z,142.50
2023-01-08T18:49:05.298Z,155.82
2023-01-08T18:51:36.408Z,154.85
2023-01-08T18:55:01.097Z,160.85
2023-01-08T18:57:33.898Z,158.40
2023-01-08T19:00:06.590Z,157.57
2023-01-08T19:05:19.961Z,159.75
2023-01-08T19:07:47.158Z,160.25
2023-01-08T19:10:14.574Z,145.18
2023-01-08T19:12:41.839Z,144.25
2023-01-08T19:15:09.645Z,149.10
2023-01-08T19:17:40.101Z,138.45
2023-01-08T19:20:16.031Z,145.35
2023-01-08T19:22:43.344Z,143.57
2023-01-08T19:25:15.098Z,138.30
2023-01-08T19:27:42.491Z,130.23
2023-01-08T19:30:10.692Z,135.52
2023-01-08T19:32:39.428Z,141.93
2023-01-08T19:35:10.052Z,130.25
2023-01-08T19:37:39.141Z,139.15
2023-01-08T19:40:07.444Z,124.78
2023-01-08T19:43:03.842Z,124.60
2023-01-08T19:45:31.176Z,132.57
2023-01-08T19:48:09.671Z,148.57
2023-01-08T19:50:51.350Z,184.23
2023-01-08T19:53:24.174Z,159.73
2023-01-08T19:55:58.025Z,158.95
2023-01-08T19:58:59.159Z,174.23
2023-01-08T20:01:28.219Z,173.90
2023-01-08T20:03:56.633Z,165.48
2023-01-08T20:06:30.651Z,168.63
2023-01-08T20:09:12.646Z,167.48
2023-01-08T20:11:41.048Z,157.52
2023-01-08T20:14:15.113Z,174.35
2023-01-08T20:16:42.962Z,157.88
2023-01-08T20:19:17.013Z,165.20
2023-01-08T20:21:46.799Z,155.43
2023-01-08T20:24:15.092Z,316.58
2023-01-08T20:26:46.705Z,174.63
2023-01-08T20:29:15.559Z,170.10
2023-01-08T20:31:43.943Z,172.23
2023-01-08T20:34:15.397Z,158.68
2023-01-08T20:36:45.413Z,180.60
2023-01-08T20:39:20.287Z,174.40
2023-01-08T20:42:04.285Z,180.50
2023-01-08T20:44:34.548Z,169.35
2023-01-08T20:47:02.207Z,171.07
2023-01-08T20:49:32.249Z,178.82
2023-01-08T20:52:01.799Z,164.77
2023-01-08T20:54:30.193Z,170.18
2023-01-08T20:56:58.602Z,177.02
2023-01-08T20:59:36.806Z,175.50
2023-01-08T21:02:07.744Z,166.40
2023-01-08T21:04:37.979Z,168.65
2023-01-08T21:07:05.948Z,165.55
2023-01-08T21:09:36.145Z,148.40
2023-01-08T21:12:03.467Z,148.13
2023-01-08T21:14:30.685Z,185.60
2023-01-08T21:16:58.033Z,155.55
2023-01-08T21:19:25.390Z,154.60
2023-01-08T21:21:52.609Z,161.32
2023-01-08T21:24:20.761Z,154.10
2023-01-08T21:26:48.930Z,138.98
2023-01-08T21:32:02.082Z,269.90
2023-01-08T21:34:29.282Z,328.13
2023-01-08T21:36:57.109Z,152.32
2023-01-08T21:39:25.832Z,129.65
2023-01-08T21:42:11.411Z,128.93
2023-01-08T21:45:03.453Z,112.90
2023-01-08T21:47:33.385Z,118.75
2023-01-08T21:50:00.522Z,104.57
2023-01-08T21:52:46.222Z,106.38
2023-01-08T21:55:17.048Z,104.32
2023-01-08T21:57:44.612Z,100.05
2023-01-08T22:00:13.696Z,100.65
2023-01-08T22:02:41.501Z,105.15
2023-01-08T22:05:12.275Z,99.88
2023-01-08T22:07:44.648Z,98.15
2023-01-08T22:10:12.573Z,96.22
2023-01-08T22:12:50.814Z,103.78
2023-01-08T22:15:24.586Z,93.63
2023-01-08T22:17:51.659Z,75.25
2023-01-08T22:20:18.979Z,84.10
2023-01-08T22:22:49.388Z,110.32
2023-01-08T22:25:16.614Z,105.30
2023-01-08T22:27:43.791Z,109.80
2023-01-08T22:30:11.471Z,113.38
2023-01-08T22:32:38.611Z,150.32
2023-01-08T22:35:06.067Z,470.85
2023-01-08T22:37:33.279Z,194.85
2023-01-08T22:40:01.083Z,120.85
2023-01-08T22:42:28.192Z,106.95
2023-01-08T22:44:55.378Z,105.90
2023-01-08T22:47:23.605Z,105.25
2023-01-08T22:49:51.122Z,93.00
2023-01-08T22:52:18.404Z,78.38
2023-01-08T22:54:47.093Z,71.68
2023-01-08T22:57:14.397Z,68.03
2023-01-08T22:59:41.627Z,75.30
2023-01-08T23:02:27.604Z,62.67
2023-01-08T23:04:55.249Z,68.82
2023-01-08T23:07:24.146Z,61.10
2023-01-08T23:09:51.609Z,67.63
2023-01-08T23:12:18.842Z,72.30
2023-01-08T23:14:46.217Z,68.07
2023-01-08T23:17:13.350Z,66.85
2023-01-08T23:19:42.085Z,75.45
2023-01-08T23:22:09.227Z,79.65
2023-01-08T23:24:36.762Z,74.38
2023-01-08T23:27:04.050Z,63.38
2023-01-08T23:29:32.306Z,58.90
2023-01-08T23:31:59.617Z,64.40
2023-01-08T23:34:26.933Z,60.67
2023-01-08T23:36:54.113Z,64.03
2023-01-08T23:39:21.997Z,71.90
2023-01-08T23:41:49.142Z,68.07
2023-01-08T23:44:16.941Z,71.13
2023-01-08T23:46:44.080Z,67.43
2023-01-08T23:49:11.443Z,62.83
2023-01-08T23:51:42.276Z,52.47
2023-01-08T23:54:11.121Z,49.05
2023-01-08T23:56:39.493Z,54.97
2023-01-08T23:59:06.783Z,59.30
